Tucson/Davis-Monthan AFB, Arizona
Current Conditions -  °F | °C
As of 1:58 PM on Friday 19 Dec 2014 (Local Time) from KDMA Reporting Station
Clear Clear  
Wind Chill: 57°   Ceiling: Unl
Heat Index: 57°   Visibility: 10mi
Dew Point: 39°   Wind: 2mph
Humidity: 52%   Direction: 220°SW
Pressure: 30.12"   Gusts: NA
Location:  32.16°N, 110.88°W
Report Text: KDMA 192058Z AUTO 22002KT 10SM CLR 14/04 A3012 RMK AO2 SLP190 T01380040 57031 $
Loading
Personal Weather Stations






























Interactive Weather Map New forecast layout! Learn more

10-Day Weather Forecast

Advertisements
Track Severe Weather on mobile